sensor_id;sensor_type;location;lat;lon;timestamp;P1;durP1;ratioP1;P2;durP2;ratioP2
59830;SDS011;45711;50.108;13.712;2022-08-14T00:00:51;9.30;;;7.53;;
59830;SDS011;45711;50.108;13.712;2022-08-14T00:03:18;10.75;;;7.45;;
59830;SDS011;45711;50.108;13.712;2022-08-14T00:05:46;10.65;;;7.43;;
59830;SDS011;45711;50.108;13.712;2022-08-14T00:08:11;11.88;;;7.60;;
59830;SDS011;45711;50.108;13.712;2022-08-14T00:10:40;9.30;;;7.70;;
59830;SDS011;45711;50.108;13.712;2022-08-14T00:13:05;9.40;;;8.15;;
59830;SDS011;45711;50.108;13.712;2022-08-14T00:15:33;11.30;;;7.78;;
59830;SDS011;45711;50.108;13.712;2022-08-14T00:18:00;8.75;;;7.78;;
59830;SDS011;45711;50.108;13.712;2022-08-14T00:20:28;12.45;;;7.97;;
59830;SDS011;45711;50.108;13.712;2022-08-14T00:22:56;10.15;;;8.48;;
59830;SDS011;45711;50.108;13.712;2022-08-14T00:25:22;10.35;;;8.20;;
59830;SDS011;45711;50.108;13.712;2022-08-14T00:27:49;8.55;;;7.63;;
59830;SDS011;45711;50.108;13.712;2022-08-14T00:30:14;9.32;;;8.32;;
59830;SDS011;45711;50.108;13.712;2022-08-14T00:32:40;12.10;;;9.10;;
59830;SDS011;45711;50.108;13.712;2022-08-14T00:35:07;11.98;;;8.88;;
59830;SDS011;45711;50.108;13.712;2022-08-14T00:37:33;15.00;;;9.02;;
59830;SDS011;45711;50.108;13.712;2022-08-14T00:40:01;11.48;;;8.70;;
59830;SDS011;45711;50.108;13.712;2022-08-14T00:42:27;9.88;;;8.20;;
59830;SDS011;45711;50.108;13.712;2022-08-14T00:44:54;11.15;;;8.00;;
59830;SDS011;45711;50.108;13.712;2022-08-14T00:47:20;12.30;;;8.07;;
59830;SDS011;45711;50.108;13.712;2022-08-14T00:49:48;10.00;;;8.32;;
59830;SDS011;45711;50.108;13.712;2022-08-14T00:52:15;11.98;;;8.60;;
59830;SDS011;45711;50.108;13.712;2022-08-14T00:54:41;12.02;;;8.70;;
59830;SDS011;45711;50.108;13.712;2022-08-14T00:57:08;11.20;;;8.52;;
59830;SDS011;45711;50.108;13.712;2022-08-14T00:59:34;13.10;;;8.32;;
59830;SDS011;45711;50.108;13.712;2022-08-14T01:02:00;10.52;;;8.93;;
59830;SDS011;45711;50.108;13.712;2022-08-14T01:04:27;12.93;;;9.20;;
59830;SDS011;45711;50.108;13.712;2022-08-14T01:06:56;11.48;;;8.68;;
59830;SDS011;45711;50.108;13.712;2022-08-14T01:09:26;10.30;;;8.50;;
59830;SDS011;45711;50.108;13.712;2022-08-14T01:11:53;11.82;;;8.32;;
59830;SDS011;45711;50.108;13.712;2022-08-14T01:14:21;10.73;;;8.32;;
59830;SDS011;45711;50.108;13.712;2022-08-14T01:16:47;9.32;;;8.32;;
59830;SDS011;45711;50.108;13.712;2022-08-14T01:19:13;9.80;;;8.25;;
59830;SDS011;45711;50.108;13.712;2022-08-14T01:21:59;9.88;;;8.75;;
59830;SDS011;45711;50.108;13.712;2022-08-14T01:24:27;10.68;;;8.85;;
59830;SDS011;45711;50.108;13.712;2022-08-14T01:26:53;11.00;;;8.05;;
59830;SDS011;45711;50.108;13.712;2022-08-14T01:29:18;13.77;;;8.52;;
59830;SDS011;45711;50.108;13.712;2022-08-14T01:31:44;13.90;;;8.32;;
59830;SDS011;45711;50.108;13.712;2022-08-14T01:34:10;11.27;;;8.52;;
59830;SDS011;45711;50.108;13.712;2022-08-14T01:36:36;9.27;;;7.85;;
59830;SDS011;45711;50.108;13.712;2022-08-14T01:39:06;11.60;;;8.57;;
59830;SDS011;45711;50.108;13.712;2022-08-14T01:41:33;13.13;;;8.73;;
59830;SDS011;45711;50.108;13.712;2022-08-14T01:44:01;12.38;;;8.80;;
59830;SDS011;45711;50.108;13.712;2022-08-14T01:46:30;9.50;;;8.50;;
59830;SDS011;45711;50.108;13.712;2022-08-14T01:48:59;8.98;;;8.07;;
59830;SDS011;45711;50.108;13.712;2022-08-14T01:51:26;10.55;;;8.82;;
59830;SDS011;45711;50.108;13.712;2022-08-14T01:53:53;10.80;;;8.75;;
59830;SDS011;45711;50.108;13.712;2022-08-14T01:56:22;10.07;;;9.02;;
59830;SDS011;45711;50.108;13.712;2022-08-14T01:59:04;10.68;;;8.82;;
59830;SDS011;45711;50.108;13.712;2022-08-14T02:01:30;9.00;;;8.07;;
59830;SDS011;45711;50.108;13.712;2022-08-14T02:03:57;10.82;;;8.85;;
59830;SDS011;45711;50.108;13.712;2022-08-14T02:06:23;9.90;;;8.50;;
59830;SDS011;45711;50.108;13.712;2022-08-14T02:08:51;11.13;;;8.48;;
59830;SDS011;45711;50.108;13.712;2022-08-14T02:11:17;9.82;;;8.52;;
59830;SDS011;45711;50.108;13.712;2022-08-14T02:13:48;11.02;;;9.32;;
59830;SDS011;45711;50.108;13.712;2022-08-14T02:16:16;10.70;;;9.05;;
59830;SDS011;45711;50.108;13.712;2022-08-14T02:18:43;12.70;;;8.43;;
59830;SDS011;45711;50.108;13.712;2022-08-14T02:21:10;14.02;;;8.52;;
59830;SDS011;45711;50.108;13.712;2022-08-14T02:23:38;12.93;;;8.60;;
59830;SDS011;45711;50.108;13.712;2022-08-14T02:26:13;11.85;;;8.30;;
59830;SDS011;45711;50.108;13.712;2022-08-14T02:28:40;10.77;;;8.63;;
59830;SDS011;45711;50.108;13.712;2022-08-14T02:31:08;10.10;;;8.70;;
59830;SDS011;45711;50.108;13.712;2022-08-14T02:33:34;9.95;;;8.40;;
59830;SDS011;45711;50.108;13.712;2022-08-14T02:36:00;11.50;;;8.70;;
59830;SDS011;45711;50.108;13.712;2022-08-14T02:38:28;10.88;;;8.32;;
59830;SDS011;45711;50.108;13.712;2022-08-14T02:40:55;17.15;;;8.98;;
59830;SDS011;45711;50.108;13.712;2022-08-14T02:43:20;11.68;;;8.48;;
59830;SDS011;45711;50.108;13.712;2022-08-14T02:45:46;12.80;;;9.15;;
59830;SDS011;45711;50.108;13.712;2022-08-14T02:48:14;12.00;;;9.20;;
59830;SDS011;45711;50.108;13.712;2022-08-14T02:50:40;10.00;;;8.43;;
59830;SDS011;45711;50.108;13.712;2022-08-14T02:53:06;10.98;;;8.82;;
59830;SDS011;45711;50.108;13.712;2022-08-14T02:55:32;11.77;;;9.35;;
59830;SDS011;45711;50.108;13.712;2022-08-14T02:57:58;10.38;;;9.07;;
59830;SDS011;45711;50.108;13.712;2022-08-14T03:00:24;12.98;;;9.48;;
59830;SDS011;45711;50.108;13.712;2022-08-14T03:02:50;10.18;;;9.00;;
59830;SDS011;45711;50.108;13.712;2022-08-14T03:05:17;11.85;;;8.48;;
59830;SDS011;45711;50.108;13.712;2022-08-14T03:07:44;14.60;;;9.05;;
59830;SDS011;45711;50.108;13.712;2022-08-14T03:10:10;12.80;;;9.25;;
59830;SDS011;45711;50.108;13.712;2022-08-14T03:12:35;13.73;;;9.60;;
59830;SDS011;45711;50.108;13.712;2022-08-14T03:15:02;10.15;;;8.90;;
59830;SDS011;45711;50.108;13.712;2022-08-14T03:17:34;10.00;;;8.73;;
59830;SDS011;45711;50.108;13.712;2022-08-14T03:19:59;14.57;;;9.30;;
59830;SDS011;45711;50.108;13.712;2022-08-14T03:22:27;9.93;;;8.93;;
59830;SDS011;45711;50.108;13.712;2022-08-14T03:24:53;10.32;;;8.90;;
59830;SDS011;45711;50.108;13.712;2022-08-14T03:27:19;10.82;;;8.82;;
59830;SDS011;45711;50.108;13.712;2022-08-14T03:29:44;9.70;;;8.70;;
59830;SDS011;45711;50.108;13.712;2022-08-14T03:32:10;12.40;;;9.50;;
59830;SDS011;45711;50.108;13.712;2022-08-14T03:34:37;12.18;;;9.18;;
59830;SDS011;45711;50.108;13.712;2022-08-14T03:37:02;10.73;;;9.32;;
59830;SDS011;45711;50.108;13.712;2022-08-14T03:39:30;11.57;;;9.13;;
59830;SDS011;45711;50.108;13.712;2022-08-14T03:41:55;14.77;;;9.15;;
59830;SDS011;45711;50.108;13.712;2022-08-14T03:44:21;12.57;;;9.52;;
59830;SDS011;45711;50.108;13.712;2022-08-14T03:46:47;12.38;;;9.02;;
59830;SDS011;45711;50.108;13.712;2022-08-14T03:49:13;9.88;;;8.88;;
59830;SDS011;45711;50.108;13.712;2022-08-14T03:51:40;12.13;;;9.57;;
59830;SDS011;45711;50.108;13.712;2022-08-14T03:54:06;13.18;;;9.70;;
59830;SDS011;45711;50.108;13.712;2022-08-14T03:56:34;13.43;;;9.45;;
59830;SDS011;45711;50.108;13.712;2022-08-14T03:59:02;11.07;;;9.50;;
59830;SDS011;45711;50.108;13.712;2022-08-14T04:01:35;11.45;;;9.35;;
59830;SDS011;45711;50.108;13.712;2022-08-14T04:04:03;11.35;;;9.23;;
59830;SDS011;45711;50.108;13.712;2022-08-14T04:06:30;11.98;;;9.40;;
59830;SDS011;45711;50.108;13.712;2022-08-14T04:08:56;13.65;;;9.98;;
59830;SDS011;45711;50.108;13.712;2022-08-14T04:11:21;17.98;;;9.65;;
59830;SDS011;45711;50.108;13.712;2022-08-14T04:13:48;12.98;;;8.90;;
59830;SDS011;45711;50.108;13.712;2022-08-14T04:16:15;15.85;;;9.88;;
59830;SDS011;45711;50.108;13.712;2022-08-14T04:18:43;11.50;;;9.55;;
59830;SDS011;45711;50.108;13.712;2022-08-14T04:21:10;10.50;;;9.40;;
59830;SDS011;45711;50.108;13.712;2022-08-14T04:23:37;11.43;;;9.80;;
59830;SDS011;45711;50.108;13.712;2022-08-14T04:26:05;12.02;;;10.02;;
59830;SDS011;45711;50.108;13.712;2022-08-14T04:28:33;11.13;;;9.93;;
59830;SDS011;45711;50.108;13.712;2022-08-14T04:31:02;15.18;;;9.82;;
59830;SDS011;45711;50.108;13.712;2022-08-14T04:33:27;11.38;;;9.70;;
59830;SDS011;45711;50.108;13.712;2022-08-14T04:35:53;14.00;;;9.82;;
59830;SDS011;45711;50.108;13.712;2022-08-14T04:38:19;10.95;;;9.52;;
59830;SDS011;45711;50.108;13.712;2022-08-14T04:41:05;12.60;;;10.23;;
59830;SDS011;45711;50.108;13.712;2022-08-14T04:43:49;11.73;;;10.32;;
59830;SDS011;45711;50.108;13.712;2022-08-14T04:46:17;14.95;;;10.20;;
59830;SDS011;45711;50.108;13.712;2022-08-14T04:48:43;13.65;;;10.45;;
59830;SDS011;45711;50.108;13.712;2022-08-14T04:51:10;12.13;;;9.93;;
59830;SDS011;45711;50.108;13.712;2022-08-14T04:53:39;13.82;;;9.77;;
59830;SDS011;45711;50.108;13.712;2022-08-14T04:56:08;11.32;;;9.20;;
59830;SDS011;45711;50.108;13.712;2022-08-14T04:58:38;10.82;;;9.45;;
59830;SDS011;45711;50.108;13.712;2022-08-14T05:01:04;12.93;;;9.38;;
59830;SDS011;45711;50.108;13.712;2022-08-14T05:03:33;12.98;;;9.90;;
59830;SDS011;45711;50.108;13.712;2022-08-14T05:06:01;12.40;;;10.23;;
59830;SDS011;45711;50.108;13.712;2022-08-14T05:08:29;14.95;;;9.85;;
59830;SDS011;45711;50.108;13.712;2022-08-14T05:10:57;12.88;;;10.52;;
59830;SDS011;45711;50.108;13.712;2022-08-14T05:13:26;11.27;;;10.00;;
59830;SDS011;45711;50.108;13.712;2022-08-14T05:15:54;12.32;;;9.93;;
59830;SDS011;45711;50.108;13.712;2022-08-14T05:18:24;19.98;;;11.20;;
59830;SDS011;45711;50.108;13.712;2022-08-14T05:20:53;14.27;;;10.48;;
59830;SDS011;45711;50.108;13.712;2022-08-14T05:23:24;17.27;;;10.57;;
59830;SDS011;45711;50.108;13.712;2022-08-14T05:25:51;15.00;;;11.10;;
59830;SDS011;45711;50.108;13.712;2022-08-14T05:28:21;12.70;;;10.27;;
59830;SDS011;45711;50.108;13.712;2022-08-14T05:30:52;13.63;;;10.27;;
59830;SDS011;45711;50.108;13.712;2022-08-14T05:33:20;12.73;;;10.80;;
59830;SDS011;45711;50.108;13.712;2022-08-14T05:35:48;12.48;;;10.30;;
59830;SDS011;45711;50.108;13.712;2022-08-14T05:38:19;18.33;;;10.50;;
59830;SDS011;45711;50.108;13.712;2022-08-14T05:40:48;12.95;;;10.38;;
59830;SDS011;45711;50.108;13.712;2022-08-14T05:43:14;14.05;;;10.63;;
59830;SDS011;45711;50.108;13.712;2022-08-14T05:45:43;18.52;;;10.98;;
59830;SDS011;45711;50.108;13.712;2022-08-14T05:48:12;13.68;;;10.38;;
59830;SDS011;45711;50.108;13.712;2022-08-14T05:50:43;16.90;;;11.20;;
59830;SDS011;45711;50.108;13.712;2022-08-14T05:53:09;12.93;;;10.68;;
59830;SDS011;45711;50.108;13.712;2022-08-14T05:55:36;16.10;;;11.63;;
59830;SDS011;45711;50.108;13.712;2022-08-14T05:58:03;13.75;;;10.57;;
59830;SDS011;45711;50.108;13.712;2022-08-14T06:00:31;12.90;;;10.73;;
59830;SDS011;45711;50.108;13.712;2022-08-14T06:02:59;13.38;;;10.98;;
59830;SDS011;45711;50.108;13.712;2022-08-14T06:05:26;14.23;;;10.43;;
59830;SDS011;45711;50.108;13.712;2022-08-14T06:07:52;12.82;;;9.88;;
59830;SDS011;45711;50.108;13.712;2022-08-14T06:10:18;12.00;;;8.75;;
59830;SDS011;45711;50.108;13.712;2022-08-14T06:12:45;12.20;;;10.65;;
59830;SDS011;45711;50.108;13.712;2022-08-14T06:15:11;13.32;;;10.48;;
59830;SDS011;45711;50.108;13.712;2022-08-14T06:17:43;15.25;;;11.98;;
59830;SDS011;45711;50.108;13.712;2022-08-14T06:20:10;15.68;;;11.15;;
59830;SDS011;45711;50.108;13.712;2022-08-14T06:22:39;15.70;;;11.85;;
59830;SDS011;45711;50.108;13.712;2022-08-14T06:25:06;15.07;;;11.65;;
59830;SDS011;45711;50.108;13.712;2022-08-14T06:27:34;17.88;;;10.68;;
59830;SDS011;45711;50.108;13.712;2022-08-14T06:30:02;14.35;;;10.52;;
59830;SDS011;45711;50.108;13.712;2022-08-14T06:32:28;14.52;;;10.57;;
59830;SDS011;45711;50.108;13.712;2022-08-14T06:34:55;15.60;;;11.05;;
59830;SDS011;45711;50.108;13.712;2022-08-14T06:37:21;13.20;;;10.52;;
59830;SDS011;45711;50.108;13.712;2022-08-14T06:39:47;13.95;;;11.05;;
59830;SDS011;45711;50.108;13.712;2022-08-14T06:42:13;13.48;;;11.55;;
59830;SDS011;45711;50.108;13.712;2022-08-14T06:44:39;18.15;;;11.57;;
59830;SDS011;45711;50.108;13.712;2022-08-14T06:47:06;14.45;;;10.63;;
59830;SDS011;45711;50.108;13.712;2022-08-14T06:49:32;14.05;;;11.45;;
59830;SDS011;45711;50.108;13.712;2022-08-14T06:51:58;13.52;;;10.50;;
59830;SDS011;45711;50.108;13.712;2022-08-14T06:54:24;15.00;;;11.10;;
59830;SDS011;45711;50.108;13.712;2022-08-14T06:56:50;13.55;;;11.23;;
59830;SDS011;45711;50.108;13.712;2022-08-14T06:59:15;16.88;;;11.48;;
59830;SDS011;45711;50.108;13.712;2022-08-14T07:01:41;13.65;;;10.77;;
59830;SDS011;45711;50.108;13.712;2022-08-14T07:04:26;12.98;;;10.88;;
59830;SDS011;45711;50.108;13.712;2022-08-14T07:07:11;13.52;;;11.35;;
59830;SDS011;45711;50.108;13.712;2022-08-14T07:09:36;14.18;;;10.80;;
59830;SDS011;45711;50.108;13.712;2022-08-14T07:12:02;16.98;;;11.43;;
59830;SDS011;45711;50.108;13.712;2022-08-14T07:14:28;13.35;;;10.60;;
59830;SDS011;45711;50.108;13.712;2022-08-14T07:16:54;20.45;;;10.57;;
59830;SDS011;45711;50.108;13.712;2022-08-14T07:19:19;8.07;;;7.28;;
59830;SDS011;45711;50.108;13.712;2022-08-14T07:21:46;11.43;;;10.18;;
59830;SDS011;45711;50.108;13.712;2022-08-14T07:24:12;10.50;;;7.35;;
59830;SDS011;45711;50.108;13.712;2022-08-14T07:26:38;9.90;;;8.10;;
59830;SDS011;45711;50.108;13.712;2022-08-14T07:29:05;19.40;;;9.60;;
59830;SDS011;45711;50.108;13.712;2022-08-14T07:31:30;12.82;;;8.88;;
59830;SDS011;45711;50.108;13.712;2022-08-14T07:33:56;11.30;;;9.63;;
59830;SDS011;45711;50.108;13.712;2022-08-14T07:36:21;7.55;;;6.10;;
59830;SDS011;45711;50.108;13.712;2022-08-14T07:38:49;11.38;;;6.93;;
59830;SDS011;45711;50.108;13.712;2022-08-14T07:41:14;12.45;;;9.40;;
59830;SDS011;45711;50.108;13.712;2022-08-14T07:43:40;11.80;;;9.95;;
59830;SDS011;45711;50.108;13.712;2022-08-14T07:46:07;11.27;;;8.95;;
59830;SDS011;45711;50.108;13.712;2022-08-14T07:48:36;14.88;;;9.98;;
59830;SDS011;45711;50.108;13.712;2022-08-14T07:51:02;8.07;;;6.22;;
59830;SDS011;45711;50.108;13.712;2022-08-14T07:53:28;11.27;;;7.18;;
59830;SDS011;45711;50.108;13.712;2022-08-14T07:55:55;15.98;;;9.50;;
59830;SDS011;45711;50.108;13.712;2022-08-14T07:58:21;13.63;;;9.70;;
59830;SDS011;45711;50.108;13.712;2022-08-14T08:00:47;14.00;;;9.27;;
59830;SDS011;45711;50.108;13.712;2022-08-14T08:03:14;15.23;;;8.63;;
59830;SDS011;45711;50.108;13.712;2022-08-14T08:05:41;11.20;;;8.95;;
59830;SDS011;45711;50.108;13.712;2022-08-14T08:08:07;10.43;;;9.13;;
59830;SDS011;45711;50.108;13.712;2022-08-14T08:10:34;10.65;;;8.82;;
59830;SDS011;45711;50.108;13.712;2022-08-14T08:13:05;14.82;;;8.80;;
59830;SDS011;45711;50.108;13.712;2022-08-14T08:15:35;8.93;;;6.72;;
59830;SDS011;45711;50.108;13.712;2022-08-14T08:18:02;6.97;;;6.30;;
59830;SDS011;45711;50.108;13.712;2022-08-14T08:20:30;9.65;;;7.22;;
59830;SDS011;45711;50.108;13.712;2022-08-14T08:22:57;7.57;;;6.78;;
59830;SDS011;45711;50.108;13.712;2022-08-14T08:25:25;12.10;;;7.80;;
59830;SDS011;45711;50.108;13.712;2022-08-14T08:27:53;8.57;;;7.63;;
59830;SDS011;45711;50.108;13.712;2022-08-14T08:30:21;10.15;;;7.75;;
59830;SDS011;45711;50.108;13.712;2022-08-14T08:32:47;10.52;;;8.55;;
59830;SDS011;45711;50.108;13.712;2022-08-14T08:35:18;7.93;;;6.78;;
59830;SDS011;45711;50.108;13.712;2022-08-14T08:37:48;8.30;;;6.80;;
59830;SDS011;45711;50.108;13.712;2022-08-14T08:40:23;8.32;;;6.45;;
59830;SDS011;45711;50.108;13.712;2022-08-14T08:42:49;8.43;;;7.45;;
59830;SDS011;45711;50.108;13.712;2022-08-14T08:45:15;8.43;;;7.13;;
59830;SDS011;45711;50.108;13.712;2022-08-14T08:47:43;7.13;;;6.40;;
59830;SDS011;45711;50.108;13.712;2022-08-14T08:50:19;8.10;;;6.88;;
59830;SDS011;45711;50.108;13.712;2022-08-14T08:52:47;9.80;;;7.47;;
59830;SDS011;45711;50.108;13.712;2022-08-14T08:55:22;7.70;;;6.90;;
59830;SDS011;45711;50.108;13.712;2022-08-14T08:57:53;13.30;;;8.25;;
59830;SDS011;45711;50.108;13.712;2022-08-14T09:00:19;7.60;;;6.55;;
59830;SDS011;45711;50.108;13.712;2022-08-14T09:02:53;7.25;;;6.55;;
59830;SDS011;45711;50.108;13.712;2022-08-14T09:05:21;9.13;;;6.90;;
59830;SDS011;45711;50.108;13.712;2022-08-14T09:07:47;8.38;;;7.05;;
59830;SDS011;45711;50.108;13.712;2022-08-14T09:10:13;7.97;;;6.43;;
59830;SDS011;45711;50.108;13.712;2022-08-14T09:12:38;7.57;;;6.55;;
59830;SDS011;45711;50.108;13.712;2022-08-14T09:15:05;9.90;;;6.30;;
59830;SDS011;45711;50.108;13.712;2022-08-14T09:17:36;10.23;;;6.55;;
59830;SDS011;45711;50.108;13.712;2022-08-14T09:20:20;7.88;;;6.68;;
59830;SDS011;45711;50.108;13.712;2022-08-14T09:22:45;7.50;;;5.80;;
59830;SDS011;45711;50.108;13.712;2022-08-14T09:25:12;11.35;;;6.38;;
59830;SDS011;45711;50.108;13.712;2022-08-14T09:27:38;12.57;;;6.18;;
59830;SDS011;45711;50.108;13.712;2022-08-14T09:30:04;6.28;;;5.53;;
59830;SDS011;45711;50.108;13.712;2022-08-14T09:32:34;7.13;;;5.32;;
59830;SDS011;45711;50.108;13.712;2022-08-14T09:35:09;10.98;;;6.15;;
59830;SDS011;45711;50.108;13.712;2022-08-14T09:37:43;6.95;;;5.63;;
59830;SDS011;45711;50.108;13.712;2022-08-14T09:40:20;6.88;;;5.47;;
59830;SDS011;45711;50.108;13.712;2022-08-14T09:42:56;9.07;;;5.10;;
59830;SDS011;45711;50.108;13.712;2022-08-14T09:45:31;8.30;;;6.05;;
59830;SDS011;45711;50.108;13.712;2022-08-14T09:48:00;8.90;;;5.80;;
59830;SDS011;45711;50.108;13.712;2022-08-14T09:50:27;6.32;;;5.47;;
59830;SDS011;45711;50.108;13.712;2022-08-14T09:52:59;11.40;;;5.63;;
59830;SDS011;45711;50.108;13.712;2022-08-14T09:55:29;6.60;;;5.57;;
59830;SDS011;45711;50.108;13.712;2022-08-14T09:58:06;7.03;;;5.53;;
59830;SDS011;45711;50.108;13.712;2022-08-14T10:00:40;11.35;;;5.57;;
59830;SDS011;45711;50.108;13.712;2022-08-14T10:03:08;10.07;;;5.78;;
59830;SDS011;45711;50.108;13.712;2022-08-14T10:05:34;9.48;;;6.90;;
59830;SDS011;45711;50.108;13.712;2022-08-14T10:08:02;10.88;;;5.63;;
59830;SDS011;45711;50.108;13.712;2022-08-14T10:10:30;8.30;;;5.43;;
59830;SDS011;45711;50.108;13.712;2022-08-14T10:12:58;13.90;;;5.55;;
59830;SDS011;45711;50.108;13.712;2022-08-14T10:15:25;10.13;;;5.72;;
59830;SDS011;45711;50.108;13.712;2022-08-14T10:18:03;7.53;;;5.45;;
59830;SDS011;45711;50.108;13.712;2022-08-14T10:20:32;9.65;;;5.93;;
59830;SDS011;45711;50.108;13.712;2022-08-14T10:23:08;31.10;;;6.63;;
59830;SDS011;45711;50.108;13.712;2022-08-14T10:25:38;9.60;;;5.95;;
59830;SDS011;45711;50.108;13.712;2022-08-14T10:28:04;10.50;;;5.93;;
59830;SDS011;45711;50.108;13.712;2022-08-14T10:30:31;15.10;;;5.68;;
59830;SDS011;45711;50.108;13.712;2022-08-14T10:33:00;11.05;;;5.63;;
59830;SDS011;45711;50.108;13.712;2022-08-14T10:35:26;10.35;;;5.57;;
59830;SDS011;45711;50.108;13.712;2022-08-14T10:37:51;10.90;;;6.15;;
59830;SDS011;45711;50.108;13.712;2022-08-14T10:40:25;13.90;;;6.13;;
59830;SDS011;45711;50.108;13.712;2022-08-14T10:42:52;10.57;;;5.90;;
59830;SDS011;45711;50.108;13.712;2022-08-14T10:45:19;7.45;;;5.97;;
59830;SDS011;45711;50.108;13.712;2022-08-14T10:47:49;9.57;;;5.75;;
59830;SDS011;45711;50.108;13.712;2022-08-14T10:50:16;13.32;;;5.90;;
59830;SDS011;45711;50.108;13.712;2022-08-14T10:52:55;10.05;;;6.00;;
59830;SDS011;45711;50.108;13.712;2022-08-14T10:55:31;12.93;;;6.85;;
59830;SDS011;45711;50.108;13.712;2022-08-14T10:58:01;8.98;;;6.22;;
59830;SDS011;45711;50.108;13.712;2022-08-14T11:00:29;10.60;;;6.07;;
59830;SDS011;45711;50.108;13.712;2022-08-14T11:02:55;9.73;;;6.63;;
59830;SDS011;45711;50.108;13.712;2022-08-14T11:05:23;11.32;;;5.80;;
59830;SDS011;45711;50.108;13.712;2022-08-14T11:07:54;9.07;;;6.18;;
59830;SDS011;45711;50.108;13.712;2022-08-14T11:10:25;7.38;;;5.90;;
59830;SDS011;45711;50.108;13.712;2022-08-14T11:13:04;12.05;;;6.03;;
59830;SDS011;45711;50.108;13.712;2022-08-14T11:15:31;10.25;;;6.25;;
59830;SDS011;45711;50.108;13.712;2022-08-14T11:17:56;8.40;;;5.90;;
59830;SDS011;45711;50.108;13.712;2022-08-14T11:20:29;15.60;;;6.22;;
59830;SDS011;45711;50.108;13.712;2022-08-14T11:22:56;8.35;;;6.15;;
59830;SDS011;45711;50.108;13.712;2022-08-14T11:25:24;9.48;;;6.50;;
59830;SDS011;45711;50.108;13.712;2022-08-14T11:27:54;11.63;;;6.43;;
59830;SDS011;45711;50.108;13.712;2022-08-14T11:30:22;9.85;;;6.22;;
59830;SDS011;45711;50.108;13.712;2022-08-14T11:32:50;8.35;;;5.82;;
59830;SDS011;45711;50.108;13.712;2022-08-14T11:35:16;12.02;;;5.63;;
59830;SDS011;45711;50.108;13.712;2022-08-14T11:37:53;7.57;;;5.90;;
59830;SDS011;45711;50.108;13.712;2022-08-14T11:40:20;7.15;;;5.82;;
59830;SDS011;45711;50.108;13.712;2022-08-14T11:42:47;7.72;;;5.63;;
59830;SDS011;45711;50.108;13.712;2022-08-14T11:45:14;8.73;;;5.78;;
59830;SDS011;45711;50.108;13.712;2022-08-14T11:47:42;10.27;;;5.70;;
59830;SDS011;45711;50.108;13.712;2022-08-14T11:50:14;5.97;;;5.32;;
59830;SDS011;45711;50.108;13.712;2022-08-14T11:52:41;9.20;;;6.13;;
59830;SDS011;45711;50.108;13.712;2022-08-14T11:55:10;6.25;;;5.47;;
59830;SDS011;45711;50.108;13.712;2022-08-14T11:57:37;21.77;;;6.22;;
59830;SDS011;45711;50.108;13.712;2022-08-14T12:00:04;7.43;;;5.90;;
59830;SDS011;45711;50.108;13.712;2022-08-14T12:02:33;10.45;;;5.50;;
59830;SDS011;45711;50.108;13.712;2022-08-14T12:05:01;12.40;;;6.03;;
59830;SDS011;45711;50.108;13.712;2022-08-14T12:07:30;9.77;;;5.95;;
59830;SDS011;45711;50.108;13.712;2022-08-14T12:09:56;7.28;;;5.50;;
59830;SDS011;45711;50.108;13.712;2022-08-14T12:12:23;6.15;;;5.55;;
59830;SDS011;45711;50.108;13.712;2022-08-14T12:14:50;7.32;;;5.90;;
59830;SDS011;45711;50.108;13.712;2022-08-14T12:17:25;7.93;;;5.53;;
59830;SDS011;45711;50.108;13.712;2022-08-14T12:19:52;9.35;;;5.40;;
59830;SDS011;45711;50.108;13.712;2022-08-14T12:25:04;6.80;;;5.38;;
59830;SDS011;45711;50.108;13.712;2022-08-14T12:27:36;13.75;;;5.55;;
59830;SDS011;45711;50.108;13.712;2022-08-14T12:30:05;9.10;;;5.90;;
59830;SDS011;45711;50.108;13.712;2022-08-14T12:32:38;6.22;;;4.95;;
59830;SDS011;45711;50.108;13.712;2022-08-14T12:35:05;7.00;;;5.40;;
59830;SDS011;45711;50.108;13.712;2022-08-14T12:37:31;9.98;;;4.93;;
59830;SDS011;45711;50.108;13.712;2022-08-14T12:40:08;7.63;;;5.30;;
59830;SDS011;45711;50.108;13.712;2022-08-14T12:42:35;12.07;;;5.28;;
59830;SDS011;45711;50.108;13.712;2022-08-14T12:45:01;5.78;;;5.00;;
59830;SDS011;45711;50.108;13.712;2022-08-14T12:47:28;9.75;;;5.30;;
59830;SDS011;45711;50.108;13.712;2022-08-14T12:49:55;7.95;;;5.47;;
59830;SDS011;45711;50.108;13.712;2022-08-14T12:52:28;6.93;;;5.55;;
59830;SDS011;45711;50.108;13.712;2022-08-14T12:54:56;8.35;;;4.93;;
59830;SDS011;45711;50.108;13.712;2022-08-14T12:57:31;6.53;;;4.90;;
59830;SDS011;45711;50.108;13.712;2022-08-14T13:00:03;7.22;;;5.25;;
59830;SDS011;45711;50.108;13.712;2022-08-14T13:02:34;9.05;;;5.40;;
59830;SDS011;45711;50.108;13.712;2022-08-14T13:05:01;11.18;;;5.40;;
59830;SDS011;45711;50.108;13.712;2022-08-14T13:07:28;6.53;;;5.25;;
59830;SDS011;45711;50.108;13.712;2022-08-14T13:09:54;18.77;;;5.93;;
59830;SDS011;45711;50.108;13.712;2022-08-14T13:12:23;11.38;;;6.20;;
59830;SDS011;45711;50.108;13.712;2022-08-14T13:14:54;10.07;;;5.90;;
59830;SDS011;45711;50.108;13.712;2022-08-14T13:17:23;12.50;;;6.18;;
59830;SDS011;45711;50.108;13.712;2022-08-14T13:19:49;8.82;;;5.25;;
59830;SDS011;45711;50.108;13.712;2022-08-14T13:22:20;11.93;;;5.90;;
59830;SDS011;45711;50.108;13.712;2022-08-14T13:24:50;7.47;;;5.22;;
59830;SDS011;45711;50.108;13.712;2022-08-14T13:27:18;7.25;;;5.22;;
59830;SDS011;45711;50.108;13.712;2022-08-14T13:29:47;7.10;;;5.30;;
59830;SDS011;45711;50.108;13.712;2022-08-14T13:32:16;8.65;;;5.40;;
59830;SDS011;45711;50.108;13.712;2022-08-14T13:34:42;5.82;;;5.22;;
59830;SDS011;45711;50.108;13.712;2022-08-14T13:37:09;5.55;;;5.05;;
59830;SDS011;45711;50.108;13.712;2022-08-14T13:39:48;7.50;;;5.22;;
59830;SDS011;45711;50.108;13.712;2022-08-14T13:42:18;5.90;;;5.30;;
59830;SDS011;45711;50.108;13.712;2022-08-14T13:44:51;5.65;;;5.10;;
59830;SDS011;45711;50.108;13.712;2022-08-14T13:47:19;9.27;;;5.43;;
59830;SDS011;45711;50.108;13.712;2022-08-14T13:49:54;9.38;;;5.20;;
59830;SDS011;45711;50.108;13.712;2022-08-14T13:52:36;6.95;;;5.63;;
59830;SDS011;45711;50.108;13.712;2022-08-14T13:55:10;6.50;;;5.25;;
59830;SDS011;45711;50.108;13.712;2022-08-14T13:57:42;6.63;;;5.32;;
59830;SDS011;45711;50.108;13.712;2022-08-14T14:00:16;6.63;;;5.60;;
59830;SDS011;45711;50.108;13.712;2022-08-14T14:02:51;6.40;;;5.03;;
59830;SDS011;45711;50.108;13.712;2022-08-14T14:05:20;7.55;;;5.68;;
59830;SDS011;45711;50.108;13.712;2022-08-14T14:07:47;9.25;;;5.60;;
59830;SDS011;45711;50.108;13.712;2022-08-14T14:10:15;7.22;;;5.03;;
59830;SDS011;45711;50.108;13.712;2022-08-14T14:13:20;6.97;;;5.47;;
59830;SDS011;45711;50.108;13.712;2022-08-14T14:15:49;6.47;;;5.40;;
59830;SDS011;45711;50.108;13.712;2022-08-14T14:18:26;10.35;;;5.68;;
59830;SDS011;45711;50.108;13.712;2022-08-14T14:20:55;10.30;;;6.15;;
59830;SDS011;45711;50.108;13.712;2022-08-14T14:23:22;7.35;;;5.20;;
59830;SDS011;45711;50.108;13.712;2022-08-14T14:25:49;6.75;;;5.45;;
59830;SDS011;45711;50.108;13.712;2022-08-14T14:28:17;9.27;;;5.78;;
59830;SDS011;45711;50.108;13.712;2022-08-14T14:30:46;7.45;;;5.47;;
59830;SDS011;45711;50.108;13.712;2022-08-14T14:33:13;10.00;;;5.68;;